Terminal Aerodrome Forecast
Issued by NWS Blacksburg, VA

Current Version | Previous Version | Graphics & Text | Print | Product List | Glossary On
Versions: 1 2 3 4 5 6 7 8 9 10 11 12 13 14 15 16 17 18 19 20 21 22 23 24 25 26 27 28 29 30 31 32 33 34 35 36 37 38
000
FTUS41 KRNK 231814 AAA
TAFBLF
TAF AMD
KBLF 231814Z 2318/2418 31005KT P6SM SCT015 BKN035
      TEMPO 2318/2320 5SM -SHRA BKN015
     FM232000 32006KT P6SM VCTS BKN025CB
     FM240100 31004KT P6SM SCT120
     FM241500 28007KT P6SM BKN250=

USA.gov is the U.S. government's official web portal to all federal, state and local government web resources and services.